createdAt,value
2023-03-18T00:00:21.849Z,4.10
2023-03-18T00:01:21.829Z,3.70
2023-03-18T00:02:21.882Z,3.90
2023-03-18T00:03:21.856Z,3.40
2023-03-18T00:04:21.932Z,3.80
2023-03-18T00:05:21.769Z,3.60
2023-03-18T00:06:21.769Z,3.60
2023-03-18T00:07:21.760Z,3.60
2023-03-18T00:08:21.751Z,3.50
2023-03-18T00:09:21.746Z,3.60
2023-03-18T00:10:21.730Z,3.60
2023-03-18T00:11:21.726Z,3.30
2023-03-18T00:12:21.709Z,3.30
2023-03-18T00:13:21.679Z,3.50
2023-03-18T00:14:21.699Z,3.80
2023-03-18T00:15:21.669Z,4.60
2023-03-18T00:16:21.699Z,5.00
2023-03-18T00:17:21.640Z,5.60
2023-03-18T00:18:21.691Z,5.00
2023-03-18T00:19:21.646Z,5.50
2023-03-18T00:20:21.611Z,5.50
2023-03-18T00:21:21.600Z,5.50
2023-03-18T00:22:21.592Z,5.60
2023-03-18T00:23:21.579Z,5.90
2023-03-18T00:24:21.580Z,6.30
2023-03-18T00:25:21.551Z,6.20
2023-03-18T00:26:21.552Z,5.70
2023-03-18T00:27:21.522Z,5.20
2023-03-18T00:28:21.529Z,5.20
2023-03-18T00:29:21.523Z,5.00
2023-03-18T00:30:21.512Z,4.00
2023-03-18T00:31:21.555Z,4.10
2023-03-18T00:32:21.482Z,3.80
2023-03-18T00:33:21.468Z,3.70
2023-03-18T00:34:21.477Z,3.40
2023-03-18T00:35:21.445Z,4.10
2023-03-18T00:36:21.433Z,3.60
2023-03-18T00:37:21.423Z,3.60
2023-03-18T00:38:21.420Z,3.50
2023-03-18T00:39:21.414Z,3.50
2023-03-18T00:40:21.393Z,3.80
2023-03-18T00:41:21.376Z,3.20
2023-03-18T00:42:21.375Z,3.10
2023-03-18T00:43:21.357Z,3.70
2023-03-18T00:44:21.379Z,2.90
2023-03-18T00:45:21.336Z,3.20
2023-03-18T00:46:21.354Z,3.30
2023-03-18T00:47:21.332Z,3.20
2023-03-18T00:48:21.331Z,3.20
2023-03-18T00:49:21.305Z,3.10
2023-03-18T00:50:21.303Z,3.30
2023-03-18T00:51:21.265Z,3.10
2023-03-18T00:52:21.268Z,3.60
2023-03-18T00:53:21.247Z,3.30
2023-03-18T00:54:21.276Z,3.00
2023-03-18T00:55:21.229Z,3.30
2023-03-18T00:56:21.221Z,3.10
2023-03-18T00:57:21.206Z,3.40
2023-03-18T00:58:21.350Z,3.50
2023-03-18T00:59:21.205Z,3.50
2023-03-18T01:00:21.169Z,3.40
2023-03-18T01:01:21.268Z,3.30
2023-03-18T01:02:21.159Z,4.00
2023-03-18T01:03:21.138Z,3.70
2023-03-18T01:04:21.148Z,3.80
2023-03-18T01:05:21.112Z,3.70
2023-03-18T01:06:21.220Z,3.90
2023-03-18T01:07:21.125Z,3.60
2023-03-18T01:08:21.209Z,3.40
2023-03-18T01:09:21.084Z,3.70
2023-03-18T01:10:21.075Z,3.40
2023-03-18T01:11:21.050Z,3.40
2023-03-18T01:12:21.046Z,3.50
2023-03-18T01:13:21.023Z,3.80
2023-03-18T01:14:21.041Z,3.80
2023-03-18T01:15:21.002Z,3.60
2023-03-18T01:16:21.087Z,3.60
2023-03-18T01:17:20.983Z,3.90
2023-03-18T01:18:20.987Z,3.70
2023-03-18T01:19:21.136Z,3.90
2023-03-18T01:20:20.960Z,3.80
2023-03-18T01:21:20.965Z,4.00
2023-03-18T01:22:22.057Z,4.20
2023-03-18T01:23:20.927Z,3.70
2023-03-18T01:24:20.997Z,3.70
2023-03-18T01:25:20.898Z,4.00
2023-03-18T01:26:20.902Z,3.50
2023-03-18T01:27:20.867Z,4.20
2023-03-18T01:28:20.867Z,4.10
2023-03-18T01:29:20.866Z,3.90
2023-03-18T01:30:20.846Z,3.90
2023-03-18T01:31:20.866Z,4.30
2023-03-18T01:32:20.826Z,4.50
2023-03-18T01:33:20.806Z,4.10
2023-03-18T01:34:20.815Z,4.20
2023-03-18T01:35:20.784Z,4.20
2023-03-18T01:36:20.777Z,4.50
2023-03-18T01:37:20.765Z,4.40
2023-03-18T01:38:20.759Z,3.80
2023-03-18T01:39:20.745Z,4.60
2023-03-18T01:40:20.733Z,3.90
2023-03-18T01:41:20.715Z,4.10
2023-03-18T01:42:20.706Z,4.10
2023-03-18T01:43:20.701Z,4.40
2023-03-18T01:44:20.725Z,4.10
2023-03-18T01:45:20.683Z,4.80
2023-03-18T01:46:20.663Z,4.40
2023-03-18T01:47:20.647Z,4.60
2023-03-18T01:48:20.644Z,4.30
2023-03-18T01:49:20.705Z,4.80
2023-03-18T01:50:20.617Z,4.60
2023-03-18T01:51:21.188Z,4.00
2023-03-18T01:52:20.615Z,5.00
2023-03-18T01:53:20.585Z,4.60
2023-03-18T01:54:21.500Z,4.60
2023-03-18T01:55:20.567Z,4.40
2023-03-18T01:56:20.597Z,4.70
2023-03-18T01:57:20.539Z,4.60
2023-03-18T01:58:20.536Z,4.80
2023-03-18T01:59:20.529Z,4.60
2023-03-18T02:00:20.505Z,4.80
2023-03-18T02:01:20.525Z,4.30
2023-03-18T02:02:20.486Z,4.80
2023-03-18T02:03:20.466Z,4.50
2023-03-18T02:04:20.485Z,4.40
2023-03-18T02:05:20.469Z,4.70
2023-03-18T02:06:20.438Z,4.60
2023-03-18T02:07:20.430Z,4.50
2023-03-18T02:08:20.433Z,4.90
2023-03-18T02:09:20.410Z,4.50
2023-03-18T02:10:20.397Z,4.70
2023-03-18T02:11:20.393Z,4.90
2023-03-18T02:12:20.385Z,4.90
2023-03-18T02:13:20.373Z,4.70
2023-03-18T02:14:20.372Z,4.40
2023-03-18T02:15:20.340Z,4.80
2023-03-18T02:16:20.408Z,4.80
2023-03-18T02:17:20.335Z,4.70
2023-03-18T02:18:20.322Z,4.70
2023-03-18T02:19:20.363Z,4.50
2023-03-18T02:20:20.291Z,4.80
2023-03-18T02:21:20.294Z,5.20
2023-03-18T02:22:20.264Z,4.70
2023-03-18T02:23:20.262Z,4.70
2023-03-18T02:24:20.257Z,4.70
2023-03-18T02:25:20.245Z,5.00
2023-03-18T02:26:20.237Z,5.30
2023-03-18T02:27:20.215Z,4.50
2023-03-18T02:28:20.253Z,4.90
2023-03-18T02:29:20.331Z,4.60
2023-03-18T02:30:20.185Z,4.90
2023-03-18T02:31:20.307Z,4.90
2023-03-18T02:32:20.153Z,4.50
2023-03-18T02:33:20.145Z,4.50
2023-03-18T02:34:20.153Z,4.70
2023-03-18T02:35:20.140Z,4.80
2023-03-18T02:36:20.106Z,4.60
2023-03-18T02:37:20.114Z,4.40
2023-03-18T02:38:20.097Z,4.80
2023-03-18T02:39:20.140Z,5.10
2023-03-18T02:40:20.085Z,5.20
2023-03-18T02:41:20.117Z,5.20
2023-03-18T02:42:20.124Z,4.60
2023-03-18T02:43:20.056Z,4.70
2023-03-18T02:44:20.046Z,4.50
2023-03-18T02:45:20.106Z,5.70
2023-03-18T02:46:20.066Z,5.20
2023-03-18T02:47:19.998Z,5.30
2023-03-18T02:48:19.977Z,4.80
2023-03-18T02:49:19.982Z,4.70
2023-03-18T02:50:19.968Z,5.10
2023-03-18T02:51:19.957Z,4.90
2023-03-18T02:52:19.948Z,4.40
2023-03-18T02:53:19.941Z,5.10
2023-03-18T02:54:19.949Z,4.70
2023-03-18T02:55:19.900Z,4.50
2023-03-18T02:56:19.901Z,4.50
2023-03-18T02:57:19.886Z,4.60
2023-03-18T02:58:19.901Z,5.20
2023-03-18T02:59:19.874Z,5.00
2023-03-18T03:00:19.874Z,4.80
2023-03-18T03:01:19.924Z,4.70
2023-03-18T03:02:19.888Z,4.80
2023-03-18T03:03:19.928Z,5.00
2023-03-18T03:04:19.812Z,5.10
2023-03-18T03:05:19.805Z,4.50
2023-03-18T03:06:19.811Z,4.80
2023-03-18T03:07:19.776Z,4.50
2023-03-18T03:08:19.766Z,4.70
2023-03-18T03:09:19.764Z,4.70
2023-03-18T03:10:19.756Z,4.60
2023-03-18T03:11:19.737Z,4.60
2023-03-18T03:12:19.778Z,5.00
2023-03-18T03:13:19.718Z,5.20
2023-03-18T03:14:19.703Z,4.70
2023-03-18T03:15:19.697Z,4.30
2023-03-18T03:16:19.734Z,4.90
2023-03-18T03:17:19.676Z,4.70
2023-03-18T03:18:19.666Z,4.50
2023-03-18T03:19:19.636Z,4.50
2023-03-18T03:20:19.647Z,4.40
2023-03-18T03:21:19.626Z,4.70
2023-03-18T03:22:19.618Z,4.70
2023-03-18T03:23:19.598Z,4.80
2023-03-18T03:24:19.597Z,4.40
2023-03-18T03:25:19.652Z,4.60
2023-03-18T03:26:19.588Z,4.60
2023-03-18T03:27:19.562Z,5.10
2023-03-18T03:28:19.552Z,4.80
2023-03-18T03:29:19.547Z,4.50
2023-03-18T03:30:19.548Z,4.70
2023-03-18T03:31:19.536Z,4.90
2023-03-18T03:32:19.511Z,4.60
2023-03-18T03:33:19.491Z,4.40
2023-03-18T03:34:19.506Z,4.70
2023-03-18T03:35:19.489Z,4.70
2023-03-18T03:36:19.536Z,4.60
2023-03-18T03:37:19.449Z,4.60
2023-03-18T03:38:19.445Z,4.50
2023-03-18T03:39:19.441Z,4.40
2023-03-18T03:40:19.431Z,4.80
2023-03-18T03:41:19.429Z,4.40
2023-03-18T03:42:19.400Z,4.50
2023-03-18T03:43:19.487Z,5.00
2023-03-18T03:44:19.470Z,4.60
2023-03-18T03:45:19.398Z,4.70
2023-03-18T03:46:19.500Z,4.60
2023-03-18T03:47:19.510Z,4.20
2023-03-18T03:48:19.336Z,4.50
2023-03-18T03:49:19.352Z,4.70
2023-03-18T03:50:19.380Z,4.90
2023-03-18T03:51:19.357Z,4.70
2023-03-18T03:52:19.315Z,4.10
2023-03-18T03:53:19.277Z,3.90
2023-03-18T03:54:19.303Z,4.50
2023-03-18T03:55:19.332Z,4.30
2023-03-18T03:56:19.315Z,4.40
2023-03-18T03:57:19.370Z,4.10
2023-03-18T03:58:19.255Z,4.60
2023-03-18T03:59:19.414Z,4.00
2023-03-18T04:00:19.387Z,4.40
2023-03-18T04:01:19.185Z,3.90
2023-03-18T04:02:19.261Z,4.10
2023-03-18T04:03:19.164Z,4.30
2023-03-18T04:04:19.169Z,3.90
2023-03-18T04:05:19.142Z,4.10
2023-03-18T04:06:19.203Z,4.10
2023-03-18T04:07:19.120Z,4.40
2023-03-18T04:08:19.178Z,3.70
2023-03-18T04:09:19.174Z,4.00
2023-03-18T04:10:19.126Z,4.80
2023-03-18T04:11:19.081Z,4.10
2023-03-18T04:12:19.063Z,4.10
2023-03-18T04:13:19.060Z,4.30
2023-03-18T04:14:19.063Z,4.20
2023-03-18T04:15:19.266Z,3.90
2023-03-18T04:16:19.244Z,4.10
2023-03-18T04:17:19.147Z,4.00
2023-03-18T04:18:19.102Z,4.40
2023-03-18T04:19:19.021Z,4.20
2023-03-18T04:20:19.008Z,3.90
2023-03-18T04:21:18.954Z,4.30
2023-03-18T04:22:18.953Z,4.00
2023-03-18T04:23:19.058Z,4.50
2023-03-18T04:24:19.032Z,4.20
2023-03-18T04:25:19.015Z,4.20
2023-03-18T04:26:19.096Z,4.90
2023-03-18T04:27:18.959Z,4.40
2023-03-18T04:28:18.902Z,4.30
2023-03-18T04:29:18.886Z,4.80
2023-03-18T04:30:18.905Z,4.30
2023-03-18T04:31:18.900Z,4.40
2023-03-18T04:32:18.847Z,4.40
2023-03-18T04:33:18.876Z,4.80
2023-03-18T04:34:18.934Z,4.50
2023-03-18T04:35:18.890Z,4.50
2023-03-18T04:36:18.805Z,4.40
2023-03-18T04:37:18.819Z,4.60
2023-03-18T04:38:18.781Z,4.50
2023-03-18T04:39:18.784Z,4.20
2023-03-18T04:40:18.758Z,4.90
2023-03-18T04:41:18.832Z,4.50
2023-03-18T04:42:18.806Z,4.90
2023-03-18T04:43:18.795Z,4.70
2023-03-18T04:44:18.725Z,5.00
2023-03-18T04:45:18.727Z,4.60
2023-03-18T04:46:18.714Z,4.40
2023-03-18T04:47:18.696Z,4.60
2023-03-18T04:48:18.685Z,4.90
2023-03-18T04:49:18.674Z,5.50
2023-03-18T04:50:18.707Z,5.10
2023-03-18T04:51:18.658Z,4.70
2023-03-18T04:52:18.634Z,4.70
2023-03-18T04:53:18.643Z,5.30
2023-03-18T04:54:18.638Z,5.20
2023-03-18T04:55:18.589Z,5.20
2023-03-18T04:56:18.584Z,4.90
2023-03-18T04:57:18.559Z,5.20
2023-03-18T04:58:18.588Z,5.00
2023-03-18T04:59:18.720Z,5.30
2023-03-18T05:00:18.607Z,5.30
2023-03-18T05:01:18.652Z,5.30
2023-03-18T05:02:18.570Z,5.10
2023-03-18T05:03:18.498Z,5.00
2023-03-18T05:04:18.560Z,5.00
2023-03-18T05:05:18.489Z,5.50
2023-03-18T05:06:18.490Z,5.70
2023-03-18T05:07:18.471Z,5.10
2023-03-18T05:08:18.719Z,5.30
2023-03-18T05:09:18.488Z,5.50
2023-03-18T05:10:18.550Z,5.30
2023-03-18T05:11:18.825Z,5.00
2023-03-18T05:12:18.411Z,5.00
2023-03-18T05:13:18.492Z,4.90
2023-03-18T05:14:18.489Z,5.30
2023-03-18T05:15:18.403Z,4.80
2023-03-18T05:16:18.793Z,5.00
2023-03-18T05:17:18.361Z,5.30
2023-03-18T05:18:18.417Z,5.00
2023-03-18T05:19:18.339Z,5.10
2023-03-18T05:20:18.324Z,5.30
2023-03-18T05:21:18.318Z,5.30
2023-03-18T05:22:18.309Z,5.30
2023-03-18T05:23:18.294Z,5.10
2023-03-18T05:24:18.305Z,5.20
2023-03-18T05:25:18.358Z,5.40
2023-03-18T05:26:18.303Z,5.30
2023-03-18T05:27:18.390Z,5.40
2023-03-18T05:28:18.231Z,5.30
2023-03-18T05:29:18.215Z,5.20
2023-03-18T05:30:18.245Z,5.00
2023-03-18T05:31:18.614Z,5.10
2023-03-18T05:32:18.196Z,5.80
2023-03-18T05:33:18.342Z,5.30
2023-03-18T05:34:18.359Z,5.60
2023-03-18T05:35:18.155Z,5.10
2023-03-18T05:36:18.185Z,5.40
2023-03-18T05:37:18.162Z,5.20
2023-03-18T05:38:18.137Z,5.10
2023-03-18T05:39:18.104Z,5.40
2023-03-18T05:40:18.096Z,5.00
2023-03-18T05:41:18.200Z,4.90
2023-03-18T05:42:18.114Z,5.20
2023-03-18T05:43:18.070Z,5.20
2023-03-18T05:44:18.055Z,5.10
2023-03-18T05:45:18.075Z,5.10
2023-03-18T05:46:18.123Z,5.40
2023-03-18T05:47:18.043Z,4.90
2023-03-18T05:48:18.009Z,5.30
2023-03-18T05:49:18.071Z,5.80
2023-03-18T05:50:18.035Z,5.10
2023-03-18T05:51:17.974Z,4.90
2023-03-18T05:52:18.271Z,4.90
2023-03-18T05:53:17.991Z,5.20
2023-03-18T05:54:17.956Z,4.90
2023-03-18T05:55:17.979Z,5.10
2023-03-18T05:56:17.928Z,5.20
2023-03-18T05:57:17.941Z,5.20
2023-03-18T05:58:17.899Z,5.70
2023-03-18T05:59:17.908Z,5.20
2023-03-18T06:00:18.084Z,5.60
2023-03-18T06:01:17.872Z,5.50
2023-03-18T06:02:17.979Z,6.00
2023-03-18T06:03:17.930Z,5.60
2023-03-18T06:04:17.873Z,5.80
2023-03-18T06:05:17.862Z,6.20
2023-03-18T06:06:17.900Z,6.90
2023-03-18T06:07:17.944Z,6.20
2023-03-18T06:08:17.819Z,6.30
2023-03-18T06:09:17.793Z,6.10
2023-03-18T06:10:17.772Z,5.80
2023-03-18T06:11:17.829Z,5.80
2023-03-18T06:12:17.792Z,5.80
2023-03-18T06:13:17.742Z,6.20
2023-03-18T06:14:17.891Z,6.30
2023-03-18T06:15:17.714Z,6.00
2023-03-18T06:16:17.797Z,6.00
2023-03-18T06:17:17.694Z,5.00
2023-03-18T06:18:17.676Z,5.80
2023-03-18T06:19:17.758Z,6.20
2023-03-18T06:20:17.665Z,7.30
2023-03-18T06:21:17.665Z,9.40
2023-03-18T06:22:17.666Z,7.90
2023-03-18T06:23:17.637Z,7.10
2023-03-18T06:24:17.631Z,6.40
2023-03-18T06:25:17.606Z,6.20
2023-03-18T06:26:17.648Z,5.50
2023-03-18T06:27:17.609Z,5.40
2023-03-18T06:28:17.589Z,4.80
2023-03-18T06:29:17.578Z,5.00
2023-03-18T06:30:17.554Z,5.30
2023-03-18T06:31:17.573Z,5.50
2023-03-18T06:32:17.538Z,4.70
2023-03-18T06:33:17.517Z,5.10
2023-03-18T06:34:17.522Z,5.00
2023-03-18T06:35:17.515Z,4.60
2023-03-18T06:36:17.490Z,4.80
2023-03-18T06:37:17.490Z,4.90
2023-03-18T06:38:17.471Z,5.30
2023-03-18T06:39:17.448Z,5.20
2023-03-18T06:40:17.493Z,5.10
2023-03-18T06:41:17.431Z,4.80
2023-03-18T06:42:17.452Z,4.40
2023-03-18T06:43:17.410Z,4.80
2023-03-18T06:44:17.534Z,4.40
2023-03-18T06:45:17.389Z,5.30
2023-03-18T06:46:17.439Z,4.70
2023-03-18T06:47:17.361Z,4.90
2023-03-18T06:48:17.362Z,4.80
2023-03-18T06:49:17.362Z,5.30
2023-03-18T06:50:17.425Z,5.10
2023-03-18T06:51:17.320Z,4.60
2023-03-18T06:52:17.312Z,4.80
2023-03-18T06:53:17.313Z,4.60
2023-03-18T06:54:17.296Z,4.70
2023-03-18T06:55:17.290Z,5.20
2023-03-18T06:56:17.369Z,4.60
2023-03-18T06:57:17.266Z,5.00
2023-03-18T06:58:17.360Z,4.90
2023-03-18T06:59:17.259Z,4.90
2023-03-18T07:00:17.350Z,4.80
2023-03-18T07:01:17.233Z,4.70
2023-03-18T07:02:17.231Z,5.10
2023-03-18T07:03:17.184Z,4.30
2023-03-18T07:04:17.261Z,4.60
2023-03-18T07:05:17.175Z,4.90
2023-03-18T07:06:17.252Z,4.50
2023-03-18T07:07:17.144Z,4.60
2023-03-18T07:08:17.134Z,4.90
2023-03-18T07:09:17.143Z,4.00
2023-03-18T07:10:17.115Z,4.90
2023-03-18T07:11:17.108Z,4.40
2023-03-18T07:12:17.087Z,4.80
2023-03-18T07:13:17.074Z,4.50
2023-03-18T07:14:17.084Z,4.00
2023-03-18T07:15:17.060Z,4.10
2023-03-18T07:16:17.094Z,4.20
2023-03-18T07:17:17.044Z,3.90
2023-03-18T07:18:17.028Z,4.00
2023-03-18T07:19:17.033Z,4.50
2023-03-18T07:20:17.013Z,4.10
2023-03-18T07:21:16.984Z,4.10
2023-03-18T07:22:16.976Z,4.10
2023-03-18T07:23:16.972Z,3.80
2023-03-18T07:24:16.975Z,3.90
2023-03-18T07:25:16.938Z,4.10
2023-03-18T07:26:17.001Z,4.10
2023-03-18T07:27:16.922Z,4.40
2023-03-18T07:28:16.915Z,3.80
2023-03-18T07:29:16.913Z,3.70
2023-03-18T07:30:16.906Z,4.10
2023-03-18T07:31:16.933Z,3.90
2023-03-18T07:32:16.880Z,3.90
2023-03-18T07:33:16.894Z,3.50
2023-03-18T07:34:16.876Z,3.80
2023-03-18T07:35:16.849Z,3.50
2023-03-18T07:36:16.833Z,3.80
2023-03-18T07:37:16.815Z,3.70
2023-03-18T07:38:16.852Z,3.60
2023-03-18T07:39:16.781Z,3.40
2023-03-18T07:40:16.835Z,3.50
2023-03-18T07:41:16.771Z,3.40
2023-03-18T07:42:16.764Z,3.50
2023-03-18T07:43:16.761Z,3.40
2023-03-18T07:44:16.828Z,3.60
2023-03-18T07:45:17.301Z,3.40
2023-03-18T07:46:16.749Z,3.30
2023-03-18T07:47:16.699Z,3.50
2023-03-18T07:48:16.804Z,3.50
2023-03-18T07:49:19.409Z,3.40
2023-03-18T07:50:17.348Z,3.30
2023-03-18T07:51:17.152Z,3.50
2023-03-18T07:52:16.840Z,3.30
2023-03-18T07:53:17.117Z,3.70
2023-03-18T07:54:16.891Z,3.20
2023-03-18T07:55:16.615Z,3.40
2023-03-18T07:56:19.022Z,3.30
2023-03-18T07:57:17.064Z,3.20
2023-03-18T07:58:16.599Z,3.30
2023-03-18T07:59:18.688Z,3.60
2023-03-18T08:00:16.557Z,3.10
2023-03-18T08:01:16.654Z,3.40
2023-03-18T08:02:16.605Z,3.40
2023-03-18T08:03:16.694Z,3.40
2023-03-18T08:04:16.706Z,3.20
2023-03-18T08:05:16.567Z,3.50
2023-03-18T08:06:17.791Z,3.40
2023-03-18T08:07:16.482Z,3.40
2023-03-18T08:08:16.550Z,3.30
2023-03-18T08:09:16.451Z,3.20
2023-03-18T08:10:16.467Z,3.10
2023-03-18T08:11:16.758Z,3.20
2023-03-18T08:12:18.726Z,3.30
2023-03-18T08:13:16.414Z,3.10
2023-03-18T08:14:16.425Z,2.80
2023-03-18T08:15:16.486Z,3.00
2023-03-18T08:16:16.525Z,3.10
2023-03-18T08:17:16.376Z,3.40
2023-03-18T08:18:17.081Z,2.90
2023-03-18T08:19:16.415Z,3.00
2023-03-18T08:20:17.375Z,3.30
2023-03-18T08:21:16.754Z,2.80
2023-03-18T08:22:16.323Z,2.90
2023-03-18T08:23:16.350Z,3.00
2023-03-18T08:24:16.400Z,2.90
2023-03-18T08:25:16.312Z,3.20
2023-03-18T08:26:16.275Z,3.00
2023-03-18T08:27:16.263Z,3.10
2023-03-18T08:28:16.260Z,3.00
2023-03-18T08:29:16.246Z,2.70
2023-03-18T08:30:16.266Z,2.80
2023-03-18T08:31:16.261Z,2.80
2023-03-18T08:32:16.257Z,3.00
2023-03-18T08:33:16.189Z,2.80
2023-03-18T08:34:16.256Z,2.80
2023-03-18T08:35:16.169Z,2.90
2023-03-18T08:36:16.212Z,2.60
2023-03-18T08:37:16.153Z,3.20
2023-03-18T08:38:16.145Z,3.10
2023-03-18T08:39:16.139Z,2.90
2023-03-18T08:40:16.163Z,2.60
2023-03-18T08:41:16.104Z,2.90
2023-03-18T08:42:16.092Z,2.70
2023-03-18T08:43:16.088Z,2.40
2023-03-18T08:44:16.104Z,2.70
2023-03-18T08:45:16.067Z,2.50
2023-03-18T08:46:16.177Z,3.00
2023-03-18T08:47:16.050Z,2.60
2023-03-18T08:48:16.025Z,2.70
2023-03-18T08:49:16.056Z,2.90
2023-03-18T08:50:16.068Z,2.60
2023-03-18T08:51:16.016Z,2.60
2023-03-18T08:52:16.204Z,2.60
2023-03-18T08:53:15.980Z,3.10
2023-03-18T08:54:15.988Z,2.60
2023-03-18T08:55:16.021Z,2.80
2023-03-18T08:56:16.054Z,2.90
2023-03-18T08:57:15.944Z,2.50
2023-03-18T08:58:15.960Z,2.70
2023-03-18T08:59:15.926Z,2.40
2023-03-18T09:00:15.900Z,2.40
2023-03-18T09:01:15.999Z,2.60
2023-03-18T09:02:15.882Z,2.60
2023-03-18T09:03:15.904Z,2.40
2023-03-18T09:04:15.884Z,2.70
2023-03-18T09:05:15.863Z,2.80
2023-03-18T09:06:15.824Z,2.40
2023-03-18T09:07:17.961Z,2.80
2023-03-18T09:08:15.957Z,2.70
2023-03-18T09:09:15.814Z,2.70
2023-03-18T09:10:15.796Z,2.80
2023-03-18T09:11:15.787Z,2.80
2023-03-18T09:12:15.800Z,2.40
2023-03-18T09:13:15.757Z,2.90
2023-03-18T09:14:15.785Z,2.60
2023-03-18T09:15:15.738Z,2.90
2023-03-18T09:16:15.782Z,2.30
2023-03-18T09:17:15.731Z,2.30
2023-03-18T09:18:15.767Z,2.70
2023-03-18T09:19:15.722Z,2.30
2023-03-18T09:20:15.677Z,2.30
2023-03-18T09:21:15.672Z,2.20
2023-03-18T09:22:15.743Z,2.20
2023-03-18T09:23:15.685Z,2.50
2023-03-18T09:24:15.713Z,2.40
2023-03-18T09:25:15.822Z,2.50
2023-03-18T09:26:15.699Z,2.40
2023-03-18T09:27:15.605Z,2.10
2023-03-18T09:28:15.611Z,2.60
2023-03-18T09:29:15.619Z,2.60
2023-03-18T09:30:15.585Z,2.70
2023-03-18T09:31:15.749Z,2.20
2023-03-18T09:32:15.564Z,2.10
2023-03-18T09:33:15.543Z,2.30
2023-03-18T09:34:15.542Z,2.60
2023-03-18T09:35:15.527Z,2.50
2023-03-18T09:36:15.549Z,2.50
2023-03-18T09:37:15.503Z,2.40
2023-03-18T09:38:15.511Z,2.30
2023-03-18T09:39:15.480Z,2.20
2023-03-18T09:40:15.468Z,2.20
2023-03-18T09:41:15.494Z,1.90
2023-03-18T09:42:15.483Z,1.90
2023-03-18T09:43:15.528Z,2.00
2023-03-18T09:44:15.446Z,2.20
2023-03-18T09:45:15.411Z,2.30
2023-03-18T09:46:15.510Z,1.90
2023-03-18T09:47:15.525Z,2.00
2023-03-18T09:48:15.412Z,1.70
2023-03-18T09:49:15.374Z,2.30
2023-03-18T09:50:15.359Z,2.20
2023-03-18T09:51:16.609Z,2.00
2023-03-18T09:52:15.330Z,2.00
2023-03-18T09:53:15.325Z,2.10
2023-03-18T09:54:15.328Z,1.70
2023-03-18T09:55:15.297Z,2.00
2023-03-18T09:56:15.324Z,1.90
2023-03-18T09:57:15.285Z,1.80
2023-03-18T09:58:15.339Z,2.00
2023-03-18T09:59:15.297Z,2.10
2023-03-18T10:00:15.334Z,2.10
2023-03-18T10:01:15.249Z,2.30
2023-03-18T10:02:15.255Z,2.20
2023-03-18T10:03:15.230Z,2.00
2023-03-18T10:04:15.304Z,2.10
2023-03-18T10:05:15.188Z,1.90
2023-03-18T10:06:15.203Z,1.80
2023-03-18T10:07:15.157Z,2.10
2023-03-18T10:08:15.170Z,1.90
2023-03-18T10:09:15.151Z,2.20
2023-03-18T10:10:15.133Z,1.60
2023-03-18T10:11:15.123Z,1.50
2023-03-18T10:12:15.108Z,1.80
2023-03-18T10:13:15.098Z,2.10
2023-03-18T10:14:15.115Z,1.90
2023-03-18T10:15:15.078Z,1.40
2023-03-18T10:16:15.136Z,1.80
2023-03-18T10:17:15.056Z,1.80
2023-03-18T10:18:15.037Z,1.30
2023-03-18T10:19:15.037Z,1.30
2023-03-18T10:20:15.496Z,1.50
2023-03-18T10:21:15.022Z,1.50
2023-03-18T10:22:15.090Z,1.40
2023-03-18T10:23:14.989Z,1.50
2023-03-18T10:24:14.979Z,1.40
2023-03-18T10:25:15.001Z,1.50
2023-03-18T10:26:14.994Z,1.80
2023-03-18T10:27:14.941Z,1.80
2023-03-18T10:28:14.942Z,1.50
2023-03-18T10:29:14.933Z,1.10
2023-03-18T10:30:15.064Z,1.30
2023-03-18T10:31:14.979Z,1.40
2023-03-18T10:32:15.017Z,1.50
2023-03-18T10:33:14.926Z,1.60
2023-03-18T10:34:14.948Z,1.50
2023-03-18T10:35:14.869Z,1.70
2023-03-18T10:36:15.031Z,1.20
2023-03-18T10:37:14.840Z,1.30
2023-03-18T10:38:14.868Z,1.20
2023-03-18T10:39:14.851Z,1.10
2023-03-18T10:40:14.829Z,1.20
2023-03-18T10:41:14.794Z,1.00
2023-03-18T10:42:14.833Z,1.20
2023-03-18T10:43:14.772Z,1.00
2023-03-18T10:44:14.842Z,0.90
2023-03-18T10:45:14.779Z,1.10
2023-03-18T10:46:14.841Z,1.20
2023-03-18T10:47:14.870Z,1.20
2023-03-18T10:48:14.715Z,1.20
2023-03-18T10:49:14.736Z,1.20
2023-03-18T10:50:14.705Z,1.40
2023-03-18T10:51:14.688Z,1.40
2023-03-18T10:52:14.738Z,1.20
2023-03-18T10:53:14.667Z,1.50
2023-03-18T10:54:14.768Z,1.60
2023-03-18T10:55:14.638Z,1.50
2023-03-18T10:56:14.689Z,1.50
2023-03-18T10:57:14.631Z,1.20
2023-03-18T10:58:14.621Z,1.30
2023-03-18T10:59:14.611Z,1.30
2023-03-18T11:00:14.591Z,1.30
2023-03-18T11:01:17.051Z,1.20
2023-03-18T11:02:14.663Z,1.40
2023-03-18T11:03:14.567Z,1.20
2023-03-18T11:04:14.578Z,1.20
2023-03-18T11:05:14.545Z,1.10
2023-03-18T11:06:14.547Z,1.00
2023-03-18T11:07:14.530Z,1.10
2023-03-18T11:08:14.547Z,1.00
2023-03-18T11:09:14.498Z,1.20
2023-03-18T11:10:14.529Z,1.50
2023-03-18T11:11:14.476Z,1.10
2023-03-18T11:12:14.508Z,1.30
2023-03-18T11:13:14.448Z,1.30
2023-03-18T11:14:14.499Z,1.20
2023-03-18T11:15:14.441Z,1.40
2023-03-18T11:16:14.513Z,1.00
2023-03-18T11:17:14.410Z,1.10
2023-03-18T11:18:14.407Z,1.10
2023-03-18T11:19:14.392Z,1.20
2023-03-18T11:20:14.401Z,1.10
2023-03-18T11:21:14.364Z,1.00
2023-03-18T11:22:14.413Z,1.00
2023-03-18T11:23:14.344Z,1.20
2023-03-18T11:24:14.336Z,2.20
2023-03-18T11:25:14.364Z,1.20
2023-03-18T11:26:14.367Z,1.10
2023-03-18T11:27:14.319Z,1.40
2023-03-18T11:28:14.313Z,1.00
2023-03-18T11:29:14.289Z,1.20
2023-03-18T11:30:18.673Z,1.10
2023-03-18T11:31:15.430Z,1.10
2023-03-18T11:32:14.274Z,1.40
2023-03-18T11:33:14.361Z,1.00
2023-03-18T11:34:14.459Z,2.80
2023-03-18T11:35:14.298Z,0.90
2023-03-18T11:36:14.331Z,8.70
2023-03-18T11:37:14.195Z,4.30
2023-03-18T11:38:14.250Z,2.00
2023-03-18T11:39:14.188Z,1.40
2023-03-18T11:40:14.280Z,1.20
2023-03-18T11:41:14.169Z,2.70
2023-03-18T11:42:14.196Z,1.30
2023-03-18T11:43:14.122Z,1.10
2023-03-18T11:44:14.322Z,1.20
2023-03-18T11:45:14.119Z,1.10
2023-03-18T11:46:14.092Z,1.40
2023-03-18T11:47:14.090Z,1.00
2023-03-18T11:48:14.070Z,1.30
2023-03-18T11:49:14.062Z,1.10
2023-03-18T11:50:14.134Z,1.20
2023-03-18T11:51:14.044Z,1.30
2023-03-18T11:52:14.115Z,1.30
2023-03-18T11:53:14.023Z,1.10
2023-03-18T11:54:14.037Z,1.00
2023-03-18T11:55:14.029Z,2.00
2023-03-18T11:56:14.016Z,1.30
2023-03-18T11:57:13.977Z,1.40
2023-03-18T11:58:14.005Z,1.30
2023-03-18T11:59:13.976Z,1.60
2023-03-18T12:00:13.955Z,1.50
2023-03-18T12:01:13.951Z,1.50
2023-03-18T12:02:14.004Z,1.10
2023-03-18T12:03:13.909Z,1.40
2023-03-18T12:04:14.183Z,1.20
2023-03-18T12:05:13.944Z,1.40
2023-03-18T12:06:13.880Z,1.00
2023-03-18T12:07:13.872Z,1.20
2023-03-18T12:08:13.882Z,1.20
2023-03-18T12:09:13.852Z,1.20
2023-03-18T12:10:13.891Z,1.20
2023-03-18T12:11:13.835Z,1.10
2023-03-18T12:12:13.834Z,1.10
2023-03-18T12:13:13.844Z,1.00
2023-03-18T12:14:13.930Z,1.20
2023-03-18T12:15:13.784Z,1.30
2023-03-18T12:16:13.947Z,1.10
2023-03-18T12:17:13.766Z,1.20
2023-03-18T12:18:13.740Z,1.20
2023-03-18T12:19:13.749Z,1.20
2023-03-18T12:20:13.775Z,1.10
2023-03-18T12:21:13.726Z,1.20
2023-03-18T12:22:13.698Z,1.10
2023-03-18T12:23:13.691Z,1.40
2023-03-18T12:24:13.756Z,1.30
2023-03-18T12:25:13.671Z,1.20
2023-03-18T12:26:13.720Z,1.50
2023-03-18T12:27:13.666Z,1.50
2023-03-18T12:28:13.635Z,1.70
2023-03-18T12:29:13.632Z,1.50
2023-03-18T12:30:13.618Z,1.30
2023-03-18T12:31:13.648Z,1.30
2023-03-18T12:32:13.613Z,1.40
2023-03-18T12:33:13.595Z,1.10
2023-03-18T12:34:15.063Z,1.30
2023-03-18T12:35:15.557Z,1.20
2023-03-18T12:36:13.556Z,1.50
2023-03-18T12:37:13.546Z,1.30
2023-03-18T12:38:13.527Z,1.20
2023-03-18T12:39:13.518Z,1.20
2023-03-18T12:40:13.522Z,2.20
2023-03-18T12:41:13.497Z,1.40
2023-03-18T12:42:13.481Z,3.60
2023-03-18T12:43:13.479Z,3.10
2023-03-18T12:44:13.485Z,3.10
2023-03-18T12:45:13.472Z,2.90
2023-03-18T12:46:13.511Z,3.10
2023-03-18T12:47:13.431Z,3.10
2023-03-18T12:48:13.420Z,2.50
2023-03-18T12:49:13.418Z,1.50
2023-03-18T12:50:13.425Z,1.40
2023-03-18T12:51:13.384Z,1.30
2023-03-18T12:52:14.110Z,1.20
2023-03-18T12:53:16.098Z,1.10
2023-03-18T12:54:13.514Z,1.20
2023-03-18T12:55:13.350Z,1.20
2023-03-18T12:56:13.438Z,1.40
2023-03-18T12:57:13.324Z,1.40
2023-03-18T12:58:13.337Z,1.30
2023-03-18T12:59:13.315Z,1.40
2023-03-18T13:00:13.384Z,1.40
2023-03-18T13:01:13.383Z,2.10
2023-03-18T13:02:13.286Z,1.60
2023-03-18T13:03:13.257Z,1.70
2023-03-18T13:04:13.295Z,1.20
2023-03-18T13:05:13.236Z,1.30
2023-03-18T13:06:13.226Z,1.20
2023-03-18T13:07:13.223Z,1.50
2023-03-18T13:08:13.228Z,1.50
2023-03-18T13:09:13.201Z,1.30
2023-03-18T13:10:13.202Z,1.20
2023-03-18T13:11:13.176Z,1.50
2023-03-18T13:12:13.166Z,1.30
2023-03-18T13:13:13.154Z,1.40
2023-03-18T13:14:13.536Z,1.50
2023-03-18T13:15:13.127Z,1.40
2023-03-18T13:16:13.118Z,1.60
2023-03-18T13:17:13.106Z,1.40
2023-03-18T13:18:13.111Z,1.20